Погода Движкина неделю

Гомельская область, Белоруссия

20 - 26 июля
  • 20июля
    Сегодня
    +15°
    +26°
    Облачно с прояснениями
    ВремяПогодаТемператураВлажностьДавлениеВетер, м/сВероятность осадков
    00:00Ясно и безоблачно+18°C69 %751 мм0.8 м/с2 %
    03:00Ясно и безоблачно+17°C81 %751 мм0.4 м/с2 %
    06:00Ясно и безоблачно+15°C81 %750 мм0.6 м/с2 %
    09:00Ясно и безоблачно+20°C58 %750 мм1.0 м/с2 %
    12:00Ясно и безоблачно+23°C42 %750 мм1.7 м/с2 %
    15:00Облачно с прояснениями+25°C38 %749 мм1.7 м/с4 %
    18:00Ясно и безоблачно+24°C37 %748 мм1.9 м/с2 %
    21:00Небольшая облачность+21°C49 %748 мм0.5 м/с2 %
  • 21июля
    Воскресенье
    +16°
    +27°
    Облачно с прояснениями
    ВремяПогодаТемператураВлажностьДавлениеВетер, м/сВероятность осадков
    00:00Ясно и безоблачно+19°C68 %748 мм0.5 м/с2 %
    03:00Ясно и безоблачно+17°C75 %748 мм0.3 м/с2 %
    06:00Ясно и безоблачно+16°C84 %748 мм0.4 м/с2 %
    09:00Ясно и безоблачно+21°C57 %748 мм0.7 м/с2 %
    12:00Небольшая облачность+24°C45 %748 мм1.1 м/с2 %
    15:00Облачно с прояснениями+26°C39 %748 мм0.9 м/с8 %
    18:00Небольшая облачность+26°C37 %747 мм1.5 м/с6 %
    21:00Ясно и безоблачно+22°C53 %747 мм0.5 м/с2 %
  • 22июля
    Понедельник
    +15°
    +27°
    Небольшая облачность
    ВремяПогодаТемператураВлажностьДавлениеВетер, м/сВероятность осадков
    00:00Ясно и безоблачно+20°C68 %747 мм0.6 м/с2 %
    03:00Практически безоблачно+18°C71 %747 мм0.6 м/с4 %
    06:00Практически безоблачно+16°C82 %747 мм0.6 м/с12 %
    09:00Практически безоблачно+21°C66 %748 мм0.9 м/с12 %
    12:00Практически безоблачно+25°C48 %748 мм1.1 м/с28 %
    15:00Небольшая облачность+27°C45 %748 мм1.3 м/с46 %
    18:00Практически безоблачно+24°C42 %747 мм1.8 м/с47 %
    21:00Ясно и безоблачно+20°C68 %748 мм0.5 м/с18 %
  • 23июля
    Вторник
    +15°
    +28°
    Ясно и безоблачно
    ВремяПогодаТемператураВлажностьДавлениеВетер, м/сВероятность осадков
    00:00Ясно и безоблачно+18°C87 %748 мм0.4 м/с3 %
    03:00Ясно и безоблачно+17°C94 %749 мм0.3 м/с5 %
    06:00Ясно и безоблачно+16°C94 %749 мм0.6 м/с5 %
    09:00Ясно и безоблачно+21°C61 %749 мм1.1 м/с2 %
    12:00Ясно и безоблачно+24°C48 %749 мм1.6 м/с30 %
    15:00Ясно и безоблачно+27°C41 %749 мм1.9 м/с36 %
    18:00Ясно и безоблачно+26°C42 %748 мм1.7 м/с26 %
    21:00Облачно с прояснениями+22°C57 %748 мм0.7 м/с17 %
  • 24июля
    Среда
    +16°
    +27°
    Облачно с прояснениями, небольшой дождь
    ВремяПогодаТемператураВлажностьДавлениеВетер, м/сВероятность осадков
    00:00Практически безоблачно+19°C76 %748 мм0.6 м/с2 %
    03:00Ясно и безоблачно+17°C88 %748 мм0.6 м/с4 %
    06:00Небольшая облачность+16°C92 %748 мм0.8 м/с2 %
    09:00Практически безоблачно+21°C68 %748 мм1.4 м/с4 %
    12:00Облачно с прояснениями, ливень+23°C63 %748 мм1.4 м/с42 %
    15:00Облачно с прояснениями, небольшой дождь+26°C50 %747 мм1.6 м/с52 %
    18:00Практически безоблачно+25°C48 %747 мм2.0 м/с46 %
    21:00Ясно и безоблачно+21°C53 %747 мм0.9 м/с26 %
Мы используем cookies
Соглашаюсь